»·PEaware :: N117SB KCOS-KGJT

N117SB :: KCOS-KGJT

FLIGHT INFORMATION

Flight Status: Arrived
Operator: Privately registered:
United States
More flights under this callsign
Pilot: Dean S. (16265)
Aircraft: DIAMOND DA-42 TWINSTAR
(DA42)
More flights by this aircraft type
Origin: KCOS City Of Colorado Springs Mun
United States
Destination: KGJT Walker
United States
More flights between these airports :: More routes between these airports
Route: +STAMY V108 DBL V134 PACES
File this flight plan on PilotEdge
Remarks:
Altitude:
(Current/Filed)
6,500ft
Speed:
(Current/Filed)
150kts
Departed: 17-Oct-17 12:22 PM
Arrived: 17-Oct-17 01:46 PM
Distance/Time
Traveled:
179nm/1:24
Distance/Time
To Go:
Arrived

Flight Plot

Page will automatically refresh every two minutes.

Flight plan parsing failed; only flown route is shown


Map Options




Map Legend


Flown Route
Filed Route
Departure Airport
Arrival Airport
Navaid (VOR, NDB)
Fix

Horizontal Profiles

Position Reports

Time Latitude Longitude Heading Altitude Ground
Speed
17-Oct-17 12:08 38.807448 -104.719041 269 6187ft 0kts
17-Oct-17 12:09 38.807448 -104.719042 269 6187ft 0kts
17-Oct-17 12:10 38.807448 -104.719044 269 6187ft 0kts
17-Oct-17 12:11 38.807448 -104.719045 269 6187ft 0kts
17-Oct-17 12:12 38.807448 -104.719047 269 6187ft 0kts
17-Oct-17 12:13 38.807448 -104.719048 269 6187ft 0kts
17-Oct-17 12:14 38.807534 -104.718821 121 6187ft 0kts
17-Oct-17 12:15 38.807533 -104.718819 121 6187ft 0kts
17-Oct-17 12:16 38.807532 -104.718817 121 6187ft 0kts
17-Oct-17 12:17 38.807531 -104.718815 121 6187ft 0kts
17-Oct-17 12:18 38.807530 -104.718813 121 6187ft 0kts
17-Oct-17 12:19 38.807463 -104.718325 85 6187ft 4kts
17-Oct-17 12:20 38.810111 -104.718107 359 6187ft 10kts
17-Oct-17 12:21 38.811729 -104.716840 10 6187ft 9kts
17-Oct-17 12:22 38.814366 -104.716806 357 6187ft 16kts
17-Oct-17 12:23 38.820000 -104.716751 0 6187ft 13kts
17-Oct-17 12:24 38.821910 -104.716676 26 6187ft 4kts
17-Oct-17 12:25 38.822006 -104.716572 46 6187ft 0kts
17-Oct-17 12:26 38.822037 -104.716527 48 6187ft 3kts
17-Oct-17 12:27 38.817690 -104.715760 181 6187ft 63kts
17-Oct-17 12:28 38.795624 -104.715891 172 6418ft 83kts
17-Oct-17 12:29 38.773163 -104.709416 182 7008ft 93kts
17-Oct-17 12:30 38.749730 -104.711651 227 7866ft 94kts
17-Oct-17 12:31 38.770170 -104.738646 343 8345ft 123kts
17-Oct-17 12:32 38.801635 -104.738266 9 9174ft 119kts
17-Oct-17 12:33 38.831552 -104.754781 329 9895ft 122kts
17-Oct-17 12:34 38.857178 -104.780857 311 10770ft 115kts
17-Oct-17 12:35 38.878175 -104.811888 309 11663ft 114kts
17-Oct-17 12:36 38.899000 -104.843664 309 12432ft 126kts
17-Oct-17 12:37 38.925280 -104.884018 309 12437ft 160kts
17-Oct-17 12:38 38.954751 -104.929218 309 12435ft 166kts
17-Oct-17 12:39 38.984584 -104.974949 309 12449ft 167kts
17-Oct-17 12:40 39.014546 -105.020891 309 12469ft 167kts
17-Oct-17 12:41 39.044001 -105.067034 298 12492ft 167kts
17-Oct-17 12:42 39.056266 -105.124453 284 12522ft 167kts
17-Oct-17 12:43 39.068655 -105.181939 285 12578ft 166kts
17-Oct-17 12:44 39.081422 -105.239099 285 12621ft 166kts
17-Oct-17 12:45 39.094188 -105.296138 285 12684ft 166kts
17-Oct-17 12:46 39.107324 -105.355033 285 12649ft 162kts
17-Oct-17 12:47 39.118800 -105.406118 285 13403ft 139kts
17-Oct-17 12:48 39.129243 -105.452851 285 14184ft 133kts
17-Oct-17 12:49 39.139852 -105.500698 285 14576ft 154kts
17-Oct-17 12:50 39.152251 -105.556993 285 14563ft 168kts
17-Oct-17 12:51 39.165202 -105.615733 285 14554ft 170kts
17-Oct-17 12:52 39.178198 -105.674705 285 14543ft 169kts
17-Oct-17 12:53 39.190905 -105.732149 285 14535ft 164kts
17-Oct-17 12:54 39.203276 -105.788372 285 14544ft 162kts
17-Oct-17 12:55 39.215370 -105.844352 285 14547ft 162kts
17-Oct-17 12:56 39.227572 -105.900587 285 14547ft 162kts
17-Oct-17 12:57 39.239752 -105.956595 285 14556ft 162kts
17-Oct-17 12:58 39.252016 -106.012606 285 14552ft 162kts
17-Oct-17 12:59 39.264226 -106.068952 285 14546ft 162kts
17-Oct-17 13:00 39.276363 -106.125183 285 14535ft 163kts
17-Oct-17 13:01 39.288545 -106.181750 285 14513ft 163kts
17-Oct-17 13:02 39.300633 -106.238008 285 14504ft 162kts
17-Oct-17 13:03 39.312640 -106.294100 284 14497ft 162kts
17-Oct-17 13:04 39.324664 -106.350408 284 14497ft 162kts
17-Oct-17 13:05 39.336655 -106.406718 284 14478ft 163kts
17-Oct-17 13:06 39.348684 -106.463296 284 14472ft 162kts
17-Oct-17 13:07 39.360494 -106.519355 284 14459ft 160kts
17-Oct-17 13:08 39.371836 -106.573703 284 14587ft 158kts
17-Oct-17 13:09 39.383575 -106.629641 284 14534ft 164kts
17-Oct-17 13:10 39.396138 -106.689596 284 14057ft 178kts
17-Oct-17 13:11 39.409150 -106.751886 284 13559ft 180kts
17-Oct-17 13:12 39.422233 -106.814476 284 13056ft 179kts
17-Oct-17 13:13 39.435140 -106.876387 284 12570ft 177kts
17-Oct-17 13:14 39.432663 -106.935302 252 12532ft 163kts
17-Oct-17 13:15 39.420652 -106.991237 254 12541ft 160kts
17-Oct-17 13:16 39.409771 -107.047042 255 12558ft 160kts
17-Oct-17 13:17 39.400799 -107.093618 255 12578ft 159kts
17-Oct-17 13:18 39.390091 -107.149169 255 12609ft 159kts
17-Oct-17 13:19 39.377543 -107.214086 255 12649ft 159kts
17-Oct-17 13:20 39.368587 -107.260287 255 12672ft 159kts
17-Oct-17 13:21 39.357787 -107.315861 255 12693ft 159kts
17-Oct-17 13:22 39.345092 -107.380995 255 12726ft 158kts
17-Oct-17 13:23 39.336098 -107.427021 255 12750ft 160kts
17-Oct-17 13:24 39.325134 -107.482966 255 12726ft 161kts
17-Oct-17 13:25 39.314043 -107.539408 255 12694ft 162kts
17-Oct-17 13:26 39.302945 -107.595736 255 12659ft 162kts
17-Oct-17 13:27 39.291757 -107.652197 254 12630ft 162kts
17-Oct-17 13:28 39.280416 -107.708283 254 12609ft 161kts
17-Oct-17 13:29 39.269190 -107.764564 255 12521ft 164kts
17-Oct-17 13:30 39.257868 -107.821325 254 12503ft 161kts
17-Oct-17 13:31 39.246723 -107.877219 255 12332ft 162kts
17-Oct-17 13:32 39.235306 -107.934523 255 11535ft 166kts
17-Oct-17 13:33 39.223738 -107.992058 254 10737ft 165kts
17-Oct-17 13:34 39.212213 -108.049235 254 9937ft 164kts
17-Oct-17 13:35 39.199399 -108.105582 249 9136ft 162kts
17-Oct-17 13:36 39.184620 -108.157604 249 8493ft 139kts
17-Oct-17 13:37 39.173312 -108.197181 248 8465ft 96kts
17-Oct-17 13:38 39.163921 -108.229702 249 7845ft 104kts
17-Oct-17 13:39 39.153438 -108.263232 243 7115ft 95kts
17-Oct-17 13:40 39.141242 -108.290238 233 6737ft 82kts
17-Oct-17 13:41 39.126819 -108.312098 222 6445ft 72kts
17-Oct-17 13:42 39.109272 -108.326628 210 6735ft 79kts
17-Oct-17 13:43 39.091055 -108.344839 213 6815ft 90kts
17-Oct-17 13:44 39.068839 -108.366441 219 6774ft 105kts
17-Oct-17 13:45 39.054331 -108.393471 291 6595ft 105kts
17-Oct-17 13:46 39.067941 -108.421911 303 5702ft 82kts
17-Oct-17 13:47 39.080668 -108.445427 303 5411ft 80kts
17-Oct-17 13:48 39.094277 -108.469982 300 5245ft 88kts
17-Oct-17 13:49 39.108268 -108.494787 301 5100ft 84kts
17-Oct-17 13:50 39.120958 -108.518908 302 4861ft 49kts
17-Oct-17 13:51 39.121106 -108.521183 299 4861ft 16kts
17-Oct-17 13:52 39.123057 -108.526251 219 4861ft 4kts
17-Oct-17 13:53 39.122792 -108.526485 215 4861ft 0kts
17-Oct-17 13:54 39.122792 -108.526485 215 4861ft 0kts

Navigation Log

Ident Type
Flight plan parsing failed, navigation log unavailable